SVMITNCM

Guest
Details From SVMI - Caracas Simon Bolivar Intl
To TNCM - St Maarten - Princess Juliana Intl
Flight Number -
Tags decoded
Created
Modified
Stats Distance 530 nm / 981 km
Max Altitude 0 ft / 0 m
Waypoints 8
Social Downloads 0
Likes 0
Share VATSIM

Download

Looking for another format? Having issues loading an existing format? Contact us
Advertisement - Login to hide

Notes

Requested: SVMI G432 SILVA A516 DANDE MARES TNCM Unmatched points: G432

Route

SVMI SILVA A516 DANDE TNCM

ID Type Via Altitude Latitude Longitude Leg Dist Tot Dist Heading (true) Name
O SVMI APT - 0 ft / 0 m 10.60312˚ -66.99059˚ - 0 nm - Caracas Simon Bolivar Intl
SILVA FIX - 0 ft / 0 m 14.45556˚ -66.67139˚ 232 nm 232 nm 5° / 5° -
MILOK FIX A516 (AWY-LO) 0 ft / 0 m 15.29333˚ -65.88000˚ 68 nm 300 nm 42° / 42° -
RAYAS FIX A516 (AWY-HI) 0 ft / 0 m 15.68786˚ -65.48857˚ 32 nm 333 nm 44° / 44° -
ANNER FIX A516 (AWY-LO) 0 ft / 0 m 16.23669˚ -64.94299˚ 45 nm 378 nm 44° / 44° -
PORQE FIX A516 (AWY-HI) 0 ft / 0 m 17.15999˚ -64.01449˚ 76 nm 455 nm 44° / 44° -
DANDE FIX A516 (AWY-HI) 0 ft / 0 m 17.50419˚ -63.66467˚ 28 nm 484 nm 44° / 44° -
O TNCM APT - 0 ft / 0 m 18.04089˚ -63.10897˚ 45 nm 529 nm 45° / 45° St Maarten - Princess Juliana Intl

Altitude Profile

Advertisement - Login to hide

Weather


0- 5 10 15 20 25 30 35+ Temperature / ° C

Clouds and Precipitation
Forecast for 2017-12-16 00:00 UTC. Updated 35 minutes ago

Ground ~20,000 ft ~40,000 ft Winds

SVMI

Details ICAO SVMI (CCS)
Name Caracas Simon Bolivar Intl
Region Venezuela
Timezone America/Caracas (UTC-4.0)
Stats Elevation 235 ft / 72 m (AMSL)
Location 10.603119° -66.990585°
Runways 2
Magnetic Variation 12.288° W

METAR

SVMI 152300Z 07005KT 9999 FEW016 26/22 Q1011

Decode

TAF

Not found

Departure Runways

ID Width Length Bearing (true) Bearing (mag) Surface Threshold Offset Overrun Length
09 145 ft / 44 m 9,825 ft / 2,995 m 75.92° 88.21° Asphalt 0 ft / 0 m 0 ft / 0 m
10 148 ft / 45 m 11,472 ft / 3,497 m 88.14° 100.43° Asphalt 0 ft / 0 m 200 ft / 61 m
27 145 ft / 44 m 9,825 ft / 2,995 m 255.92° 268.21° Asphalt 0 ft / 0 m 0 ft / 0 m
28 148 ft / 45 m 11,472 ft / 3,497 m 268.15° 280.44° Asphalt 0 ft / 0 m 200 ft / 61 m

TNCM

Details ICAO TNCM (SXM)
Name St Maarten - Princess Juliana Intl
Region Caribbean Netherlands, Aruba, Curaçao, Sint Maarten
Timezone Unknown (UTC+0.0)
Stats Elevation 12 ft / 4 m (AMSL)
Location 18.040889° -63.108974°
Runways 1
Magnetic Variation 14.325° W

METAR

TNCM 152300Z 06012KT 030V090 9999 FEW020 27/22 Q1017 NOSIG RMK A3005

Decode

TAF

TAF TNCM 152320Z 1600/1624 06010KT P6SM SCT022 FM161200 05017KT P6SM SCT018 SCT040 FM162300 06011KT P6SM FEW022

Decode

Destination Runways

ID Width Length Bearing (true) Bearing (mag) Surface Threshold Offset Overrun Length
10 148 ft / 45 m 7,464 ft / 2,275 m 81.43° 95.76° Asphalt 0 ft / 0 m 151 ft / 46 m
28 148 ft / 45 m 7,464 ft / 2,275 m 261.44° 275.77° Asphalt 397 ft / 121 m 0 ft / 0 m

Popular Alternatives